Time;durP1;ratioP1;P1;durP2;ratioP2;P2;SDS_P1;SDS_P2;PMS_P1;PMS_P2;Temp;Humidity;BMP_temperature;BMP_pressure;BME280_temperature;BME280_humidity;BME280_pressure;Samples;Min_cycle;Max_cycle;Signal;HPM_P1;HPM_P2
2022/05/16 00:00:37;;;;;;;6.43;3.58;;;18.10;99.90;;;;;;5032932;28;20294;-90
2022/05/16 00:03:08;;;;;;;6.20;3.92;;;18.00;99.90;;;;;;5032954;28;20222;-90
2022/05/16 00:05:37;;;;;;;4.53;3.58;;;18.00;99.90;;;;;;5033004;28;20332;-90
2022/05/16 00:08:06;;;;;;;4.22;3.60;;;18.00;99.90;;;;;;5033416;28;20260;-91
2022/05/16 00:10:37;;;;;;;6.05;3.15;;;18.00;99.90;;;;;;5032049;28;20210;-90
2022/05/16 00:13:06;;;;;;;3.65;3.35;;;18.00;99.90;;;;;;5032793;28;20299;-90
2022/05/16 00:15:35;;;;;;;3.20;2.90;;;17.90;99.90;;;;;;5032731;28;20226;-90
2022/05/16 00:18:05;;;;;;;4.22;3.80;;;17.90;99.90;;;;;;5033138;28;20202;-91
2022/05/16 00:20:33;;;;;;;4.30;2.83;;;17.90;99.90;;;;;;5032956;28;20202;-90
2022/05/16 00:23:02;;;;;;;3.53;3.10;;;17.80;99.90;;;;;;5032710;28;20222;-91
2022/05/16 00:25:30;;;;;;;3.97;3.55;;;17.70;99.90;;;;;;5032821;28;20260;-89
2022/05/16 00:28:00;;;;;;;4.15;3.72;;;17.70;99.90;;;;;;5032939;28;20302;-90
2022/05/16 00:30:29;;;;;;;7.38;3.67;;;17.70;99.90;;;;;;5032681;28;20217;-91
2022/05/16 00:32:58;;;;;;;4.90;2.75;;;17.60;99.90;;;;;;5032543;28;20284;-91
2022/05/16 00:35:26;;;;;;;3.20;2.95;;;17.60;99.90;;;;;;5032806;28;20234;-91
2022/05/16 00:37:55;;;;;;;3.40;3.10;;;17.50;99.90;;;;;;5032694;28;20202;-91
2022/05/16 00:40:23;;;;;;;10.30;3.25;;;17.50;99.90;;;;;;5032366;28;20237;-91
2022/05/16 00:42:58;;;;;;;2.88;2.67;;;17.40;99.90;;;;;;5032471;28;20248;-89
2022/05/16 00:45:39;;;;;;;3.10;2.80;;;17.40;99.90;;;;;;5032728;28;20214;-90
2022/05/16 00:48:08;;;;;;;3.70;3.25;;;17.30;99.90;;;;;;5032307;28;20293;-90
2022/05/16 00:50:40;;;;;;;9.13;3.17;;;17.30;99.90;;;;;;5032144;28;20301;-91
2022/05/16 00:53:10;;;;;;;4.97;3.20;;;17.30;99.90;;;;;;5032225;28;20222;-90
2022/05/16 00:55:39;;;;;;;3.40;3.10;;;17.30;99.90;;;;;;5032746;28;20214;-90
2022/05/16 00:58:11;;;;;;;3.33;3.03;;;17.30;99.90;;;;;;5032409;28;20206;-90
2022/05/16 01:00:43;;;;;;;4.25;3.83;;;17.20;99.90;;;;;;5032386;28;20210;-90
2022/05/16 01:06:00;;;;;;;3.30;3.00;;;17.20;99.90;;;;;;5032445;28;20370;-91
2022/05/16 01:08:30;;;;;;;3.33;3.03;;;17.20;99.90;;;;;;5032953;28;20237;-91
2022/05/16 01:11:02;;;;;;;3.33;3.03;;;17.20;99.90;;;;;;5032145;28;20215;-91
2022/05/16 01:13:32;;;;;;;3.83;3.45;;;17.10;99.90;;;;;;5032434;28;20317;-90
2022/05/16 01:16:04;;;;;;;3.70;3.40;;;17.10;99.90;;;;;;5033166;28;20293;-90
2022/05/16 01:18:32;;;;;;;4.53;3.55;;;17.10;99.90;;;;;;5033252;28;20294;-90
2022/05/16 01:21:17;;;;;;;3.65;3.30;;;17.10;99.90;;;;;;5033967;28;20210;-91
2022/05/16 01:23:51;;;;;;;3.33;3.03;;;17.10;99.90;;;;;;5036965;28;20238;-90
2022/05/16 01:26:24;;;;;;;3.58;3.00;;;17.10;99.90;;;;;;5038155;28;20268;-90
2022/05/16 01:28:53;;;;;;;5.22;3.63;;;17.10;99.90;;;;;;5037841;28;20210;-91
2022/05/16 01:31:22;;;;;;;3.00;2.80;;;17.10;99.90;;;;;;5036591;28;20280;-90
2022/05/16 01:33:51;;;;;;;3.20;2.95;;;17.10;99.90;;;;;;5035905;28;20280;-91
2022/05/16 01:36:20;;;;;;;3.22;2.92;;;17.10;99.90;;;;;;5036457;28;20303;-90
2022/05/16 01:38:51;;;;;;;4.50;3.25;;;17.10;99.90;;;;;;5036285;28;20237;-91
2022/05/16 01:41:21;;;;;;;3.17;2.72;;;17.10;99.90;;;;;;5035623;28;20214;-91
2022/05/16 01:43:55;;;;;;;3.60;3.03;;;17.10;99.90;;;;;;5035826;28;20226;-91
2022/05/16 01:46:27;;;;;;;3.40;3.10;;;17.10;99.90;;;;;;5035761;28;20206;-91
2022/05/16 01:48:56;;;;;;;3.90;3.45;;;17.10;99.90;;;;;;5035992;28;20229;-90
2022/05/16 01:51:25;;;;;;;4.03;2.83;;;17.10;99.90;;;;;;5035777;28;20264;-90
2022/05/16 01:53:55;;;;;;;3.03;2.83;;;17.00;99.90;;;;;;5035371;28;20261;-90
2022/05/16 01:56:24;;;;;;;3.40;3.10;;;17.10;99.90;;;;;;5035925;28;20264;-90
2022/05/16 01:58:52;;;;;;;3.97;2.88;;;17.00;99.90;;;;;;5036867;28;20206;-91
2022/05/16 02:01:21;;;;;;;6.53;2.45;;;17.00;99.90;;;;;;5035751;28;20238;-90
2022/05/16 02:03:50;;;;;;;2.92;2.50;;;17.00;99.90;;;;;;5035448;28;20227;-90
2022/05/16 02:06:19;;;;;;;3.25;2.80;;;16.90;99.90;;;;;;5035301;28;20222;-90
2022/05/16 02:08:48;;;;;;;4.22;2.88;;;16.90;99.90;;;;;;5035303;28;20206;-91
2022/05/16 02:11:18;;;;;;;4.55;3.20;;;16.90;99.90;;;;;;5035413;28;20276;-91
2022/05/16 02:13:47;;;;;;;5.10;3.08;;;16.90;99.90;;;;;;5035325;28;20219;-91
2022/05/16 02:16:15;;;;;;;4.65;3.42;;;16.90;99.90;;;;;;5035745;28;20210;-90
2022/05/16 02:18:44;;;;;;;6.45;3.33;;;16.80;99.90;;;;;;5035807;28;20256;-90
2022/05/16 02:26:47;;;;;;;5.05;3.25;;;16.70;99.90;;;;;;5035349;28;20236;-91
2022/05/16 02:29:17;;;;;;;3.42;3.13;;;16.60;99.90;;;;;;5034975;28;20206;-90
2022/05/16 02:31:47;;;;;;;3.85;3.15;;;16.60;99.90;;;;;;5034751;28;20208;-90
2022/05/16 02:34:16;;;;;;;4.93;3.35;;;16.60;99.90;;;;;;5033963;28;20293;-90
2022/05/16 02:36:45;;;;;;;4.13;2.90;;;16.60;99.90;;;;;;5034763;28;20256;-90
2022/05/16 02:39:15;;;;;;;4.28;3.45;;;16.60;99.90;;;;;;5034990;28;20210;-91
2022/05/16 02:41:45;;;;;;;3.95;3.53;;;16.50;99.90;;;;;;5034484;28;20210;-90
2022/05/16 02:44:14;;;;;;;5.30;3.75;;;16.60;99.90;;;;;;5034690;28;20307;-91
2022/05/16 02:46:43;;;;;;;3.13;2.83;;;16.50;99.90;;;;;;5034753;28;20260;-90
2022/05/16 02:49:12;;;;;;;5.10;4.03;;;16.50;99.90;;;;;;5034448;28;20234;-90
2022/05/16 02:51:41;;;;;;;7.40;3.67;;;16.50;99.90;;;;;;5034711;28;20237;-90
2022/05/16 02:54:09;;;;;;;4.30;3.35;;;16.50;99.90;;;;;;5034118;28;20261;-90
2022/05/16 02:56:37;;;;;;;3.20;2.90;;;16.40;99.90;;;;;;5034724;28;20237;-89
2022/05/16 02:59:07;;;;;;;5.72;3.20;;;16.40;99.90;;;;;;5034617;28;20243;-91
2022/05/16 03:01:36;;;;;;;4.03;3.08;;;16.40;99.90;;;;;;5034010;28;20207;-90
2022/05/16 03:04:05;;;;;;;3.95;3.55;;;16.40;99.90;;;;;;5034497;28;20233;-91
2022/05/16 03:06:34;;;;;;;3.40;3.10;;;16.40;99.90;;;;;;5034364;28;20285;-90
2022/05/16 03:09:02;;;;;;;3.70;3.17;;;16.40;99.90;;;;;;5034403;28;20210;-90
2022/05/16 03:11:31;;;;;;;6.75;2.92;;;16.40;99.90;;;;;;5033979;28;20214;-90
2022/05/16 03:13:59;;;;;;;7.15;3.72;;;16.40;99.90;;;;;;5034059;28;20226;-89
2022/05/16 03:16:29;;;;;;;3.92;3.30;;;16.40;99.90;;;;;;5034276;28;20237;-90
2022/05/16 03:18:58;;;;;;;3.22;3.00;;;16.40;99.90;;;;;;5034372;28;20222;-90
2022/05/16 03:21:26;;;;;;;6.00;3.03;;;16.40;99.90;;;;;;5034092;28;20229;-90
2022/05/16 03:23:55;;;;;;;3.42;3.05;;;16.40;99.90;;;;;;5033638;28;20248;-90
2022/05/16 03:26:23;;;;;;;4.05;3.50;;;16.40;99.90;;;;;;5033861;28;20226;-91
2022/05/16 03:28:52;;;;;;;4.68;3.15;;;16.40;99.90;;;;;;5033921;28;20210;-89
2022/05/16 03:31:20;;;;;;;6.22;3.58;;;16.40;99.90;;;;;;5033179;28;20233;-91
2022/05/16 03:33:51;;;;;;;4.53;3.10;;;16.40;99.90;;;;;;5033955;28;20253;-90
2022/05/16 03:36:24;;;;;;;3.45;3.15;;;16.40;99.90;;;;;;5033843;28;20208;-91
2022/05/16 03:41:38;;;;;;;3.05;2.75;;;16.40;99.90;;;;;;5033626;28;20306;-91
2022/05/16 03:44:06;;;;;;;4.55;3.75;;;16.40;99.90;;;;;;5033307;28;20290;-90
2022/05/16 03:46:35;;;;;;;8.48;2.83;;;16.30;99.90;;;;;;5033555;28;20226;-90
2022/05/16 03:49:06;;;;;;;3.85;3.53;;;16.30;99.90;;;;;;5033548;28;20260;-89
2022/05/16 03:51:35;;;;;;;5.38;3.67;;;16.30;99.90;;;;;;5033426;28;20236;-90
2022/05/16 03:54:04;;;;;;;3.50;2.92;;;16.30;99.90;;;;;;5033135;28;20283;-90
2022/05/16 03:56:33;;;;;;;10.40;3.60;;;16.30;99.90;;;;;;5033279;28;20202;-90
2022/05/16 03:59:02;;;;;;;4.60;3.83;;;16.30;99.90;;;;;;5033491;28;20310;-90
2022/05/16 04:01:30;;;;;;;3.28;2.97;;;16.40;99.90;;;;;;5033134;28;20245;-91
2022/05/16 04:03:59;;;;;;;5.63;3.47;;;16.40;99.90;;;;;;5032960;28;20222;-89
2022/05/16 04:06:29;;;;;;;4.30;3.60;;;16.40;99.90;;;;;;5033026;28;20237;-90
2022/05/16 04:08:59;;;;;;;5.72;3.83;;;16.40;99.90;;;;;;5032901;28;20214;-90
2022/05/16 04:11:28;;;;;;;3.28;2.80;;;16.40;99.90;;;;;;5032664;28;20225;-90
2022/05/16 04:13:56;;;;;;;5.68;3.75;;;16.40;99.90;;;;;;5033157;28;20250;-89
2022/05/16 04:16:25;;;;;;;3.65;3.35;;;16.50;99.90;;;;;;5032858;28;20268;-90
2022/05/16 04:18:53;;;;;;;3.95;3.65;;;16.50;99.90;;;;;;5032751;28;20202;-90
2022/05/16 04:21:22;;;;;;;3.80;3.25;;;16.50;99.90;;;;;;5032694;28;20211;-89
2022/05/16 04:23:52;;;;;;;2.78;2.58;;;16.50;99.90;;;;;;5033092;28;20269;-90
2022/05/16 04:26:20;;;;;;;5.97;2.97;;;16.50;99.90;;;;;;5033025;28;20222;-90
2022/05/16 04:28:49;;;;;;;4.38;3.50;;;16.50;99.90;;;;;;5032714;28;20234;-90
2022/05/16 04:31:17;;;;;;;3.75;3.38;;;16.60;99.90;;;;;;5032604;28;20210;-90
2022/05/16 04:33:46;;;;;;;4.05;3.65;;;16.60;99.90;;;;;;5032538;28;20219;-90
2022/05/16 04:36:14;;;;;;;4.45;3.63;;;16.60;99.90;;;;;;5032730;28;20284;-91
2022/05/16 04:38:43;;;;;;;6.00;3.10;;;16.60;99.90;;;;;;5032759;28;20314;-90
2022/05/16 04:43:58;;;;;;;4.38;3.88;;;16.70;99.90;;;;;;5032740;28;20230;-90
2022/05/16 04:46:27;;;;;;;4.63;3.72;;;16.70;99.90;;;;;;5032543;28;20253;-89
2022/05/16 04:48:55;;;;;;;4.28;3.40;;;16.70;99.90;;;;;;5032766;28;20255;-90
2022/05/16 04:51:24;;;;;;;5.07;3.40;;;16.80;99.90;;;;;;5032850;28;20206;-91
2022/05/16 04:53:53;;;;;;;3.45;3.10;;;16.80;99.90;;;;;;5032495;28;20246;-89
2022/05/16 04:56:23;;;;;;;4.38;3.75;;;16.80;99.90;;;;;;5033999;28;20229;-90
2022/05/16 04:58:51;;;;;;;4.35;3.75;;;16.90;99.90;;;;;;5036495;28;20202;-90
2022/05/16 05:01:20;;;;;;;4.05;3.25;;;16.90;99.90;;;;;;5036353;28;20264;-90
2022/05/16 05:03:48;;;;;;;3.47;3.17;;;16.90;99.90;;;;;;5036128;28;20233;-89
2022/05/16 05:06:18;;;;;;;3.90;3.53;;;16.90;99.90;;;;;;5036665;28;20211;-90
2022/05/16 05:08:46;;;;;;;3.47;3.17;;;16.90;99.90;;;;;;5036683;28;20202;-90
2022/05/16 05:16:47;;;;;;;5.40;3.80;;;17.00;99.90;;;;;;5036215;28;20242;-90
2022/05/16 05:19:16;;;;;;;6.07;3.72;;;17.10;99.90;;;;;;5036151;28;20213;-91
2022/05/16 05:21:44;;;;;;;4.57;3.40;;;17.10;99.90;;;;;;5036249;28;20214;-91
2022/05/16 05:24:16;;;;;;;5.10;4.07;;;17.20;99.90;;;;;;5035833;28;20242;-90
2022/05/16 05:38:19;;;;;;;4.15;3.75;;;17.40;99.90;;;;;;4959211;28;20186;-90
2022/05/16 05:40:49;;;;;;;4.45;3.90;;;17.50;99.90;;;;;;5033483;28;20241;-89
2022/05/16 05:43:31;;;;;;;4.53;3.92;;;17.50;99.90;;;;;;5031768;28;20237;-90
2022/05/16 05:45:59;;;;;;;7.00;3.85;;;17.60;99.90;;;;;;5033807;28;20202;-90
2022/05/16 05:48:28;;;;;;;4.93;4.43;;;17.60;99.90;;;;;;5033587;28;20213;-90
2022/05/16 05:50:56;;;;;;;4.43;3.95;;;17.70;99.90;;;;;;5033472;28;20304;-90
2022/05/16 05:53:26;;;;;;;4.65;3.75;;;17.80;99.90;;;;;;5033577;28;20370;-90
2022/05/16 05:55:55;;;;;;;5.85;4.13;;;17.80;99.90;;;;;;5033224;28;20214;-90
2022/05/16 05:58:24;;;;;;;5.32;4.18;;;17.90;99.90;;;;;;5033523;28;20206;-90
2022/05/16 06:11:21;;;;;;;4.75;4.15;;;18.30;99.90;;;;;;4965054;28;20270;-90
2022/05/16 06:13:52;;;;;;;4.35;3.90;;;18.40;99.90;;;;;;4994151;28;20243;-90
2022/05/16 06:16:20;;;;;;;6.72;3.92;;;18.50;99.90;;;;;;4993811;28;20258;-90
2022/05/16 06:18:59;;;;;;;2.75;2.55;;;18.60;99.90;;;;;;4996486;28;20211;-90
2022/05/16 06:25:58;;;;;;;5.90;3.40;;;18.80;99.90;;;;;;4842517;29;20233;-90
2022/05/16 06:28:50;;;;;;;5.65;3.05;;;18.90;99.90;;;;;;4768464;30;20280;-89
2022/05/16 06:31:42;;;;;;;4.63;3.03;;;19.10;99.90;;;;;;4795211;29;20214;-90
2022/05/16 06:34:14;;;;;;;18.77;3.85;;;19.20;99.90;;;;;;4808537;29;20258;-89
2022/05/16 06:36:51;;;;;;;2.80;2.47;;;19.40;99.90;;;;;;4878942;29;20287;-89
2022/05/16 06:39:20;;;;;;;3.50;3.20;;;19.60;99.80;;;;;;4879031;29;20349;-90
2022/05/16 06:41:49;;;;;;;3.88;2.85;;;19.70;98.10;;;;;;4929101;28;20303;-90
2022/05/16 06:44:21;;;;;;;3.53;2.90;;;19.80;96.60;;;;;;4973941;28;20252;-90
2022/05/16 06:46:50;;;;;;;2.42;2.22;;;19.80;95.80;;;;;;4973804;28;20213;-90
2022/05/16 06:49:23;;;;;;;4.90;3.10;;;20.00;95.60;;;;;;4973916;28;20212;-90
2022/05/16 06:51:51;;;;;;;4.38;3.20;;;20.20;95.20;;;;;;4973732;28;20268;-90
2022/05/16 06:54:35;;;;;;;3.63;2.70;;;20.40;94.90;;;;;;4973963;28;20231;-90
2022/05/16 06:57:04;;;;;;;3.00;2.70;;;20.50;93.70;;;;;;4973649;28;20261;-90
2022/05/16 06:59:34;;;;;;;3.42;3.13;;;20.70;93.20;;;;;;5002728;28;20206;-90
2022/05/16 07:02:07;;;;;;;3.50;3.15;;;20.90;92.00;;;;;;5034270;28;20306;-89
2022/05/16 07:04:45;;;;;;;3.67;3.17;;;21.00;91.60;;;;;;5034103;28;20199;-89
2022/05/16 07:07:13;;;;;;;6.75;2.83;;;21.20;91.60;;;;;;5034369;28;20205;-90
2022/05/16 07:09:41;;;;;;;5.97;3.20;;;21.50;91.10;;;;;;5034365;28;20237;-90
2022/05/16 07:15:39;;;;;;;3.72;2.42;;;21.90;89.70;;;;;;5033971;28;20243;-89
2022/05/16 07:24:48;;;;;;;4.57;3.47;;;22.90;85.80;;;;;;5471735;22;20296;-89
2022/05/16 07:30:02;;;;;;;3.75;3.00;;;24.60;81.00;;;;;;5014568;28;20269;-90
2022/05/16 07:32:37;;;;;;;2.92;2.42;;;25.70;78.20;;;;;;5014111;28;20223;-89
2022/05/16 07:35:18;;;;;;;7.97;3.40;;;26.80;74.10;;;;;;5014288;28;20211;-89
2022/05/16 07:38:30;;;;;;;6.10;2.78;;;28.40;72.40;;;;;;5014241;28;20269;-89
2022/05/16 07:41:00;;;;;;;7.10;2.95;;;29.10;65.80;;;;;;5014120;28;20271;-89
2022/05/16 07:43:29;;;;;;;3.83;3.25;;;29.60;64.60;;;;;;5013484;28;20237;-90
2022/05/16 07:49:34;;;;;;;3.22;2.80;;;31.30;57.10;;;;;;5013889;28;20286;-89
2022/05/16 07:52:09;;;;;;;4.50;3.03;;;32.90;56.00;;;;;;5013583;28;20199;-90
2022/05/16 07:55:35;;;;;;;7.55;3.05;;;33.30;53.50;;;;;;4981880;28;20233;-90
2022/05/16 07:58:17;;;;;;;3.55;2.90;;;33.40;51.10;;;;;;5004524;28;20241;-90
2022/05/16 08:01:09;;;;;;;3.00;2.70;;;34.00;50.60;;;;;;5013493;28;20202;-90
2022/05/16 08:04:43;;;;;;;2.97;2.70;;;34.00;49.70;;;;;;5013839;28;20253;-90
2022/05/16 08:11:14;;;;;;;6.32;3.05;;;34.60;49.20;;;;;;5013211;28;20202;-89
2022/05/16 08:14:13;;;;;;;3.97;2.47;;;34.70;47.30;;;;;;5013306;28;20309;-89
2022/05/16 08:17:17;;;;;;;2.88;2.63;;;34.90;50.50;;;;;;5013397;28;20237;-89
2022/05/16 08:19:56;;;;;;;3.80;2.80;;;35.70;49.60;;;;;;5013550;28;20230;-89
2022/05/16 08:26:04;;;;;;;2.70;2.47;;;37.30;45.20;;;;;;5006252;28;20297;-89
2022/05/16 08:31:46;;;;;;;3.22;2.97;;;37.40;43.90;;;;;;5012190;28;20325;-89
2022/05/16 08:34:29;;;;;;;3.95;2.95;;;37.90;43.70;;;;;;5010371;28;20229;-89
2022/05/16 08:40:48;;;;;;;3.03;2.80;;;38.90;41.70;;;;;;5012750;28;20214;-90
2022/05/16 08:43:27;;;;;;;4.78;2.95;;;38.60;39.10;;;;;;5013065;28;20317;-89
2022/05/16 08:52:50;;;;;;;2.72;2.47;;;36.70;41.60;;;;;;5009012;28;20233;-89
2022/05/16 08:55:35;;;;;;;4.40;2.63;;;36.90;43.50;;;;;;5013082;28;20236;-89
2022/05/16 08:58:16;;;;;;;3.80;2.78;;;37.40;42.10;;;;;;5012657;28;20249;-89
2022/05/16 09:00:51;;;;;;;5.38;2.75;;;37.70;40.30;;;;;;5012803;28;20232;-88
2022/05/16 09:03:26;;;;;;;4.35;3.30;;;37.60;41.10;;;;;;5019337;23;20232;-89
2022/05/16 09:06:15;;;;;;;4.05;2.65;;;37.00;40.70;;;;;;5012975;28;20217;-89
2022/05/16 09:09:19;;;;;;;4.95;2.67;;;36.70;41.60;;;;;;5012519;28;20203;-88
2022/05/16 09:12:01;;;;;;;3.65;2.60;;;36.80;40.90;;;;;;5012292;28;20260;-88
2022/05/16 09:14:57;;;;;;;4.72;2.90;;;37.10;41.90;;;;;;4993219;28;20285;-89
2022/05/16 09:17:34;;;;;;;3.63;2.50;;;37.50;40.10;;;;;;4992896;28;20222;-89
2022/05/16 09:24:06;;;;;;;12.57;3.00;;;37.30;40.80;;;;;;4992678;28;20269;-88
2022/05/16 09:30:57;;;;;;;6.03;2.97;;;36.70;38.90;;;;;;4991335;28;20203;-89
2022/05/16 09:33:47;;;;;;;5.55;4.18;;;36.10;41.10;;;;;;4992464;28;20223;-90
2022/05/16 09:40:53;;;;;;;6.95;3.15;;;35.50;41.50;;;;;;4929799;29;20209;-90
2022/05/16 09:55:10;;;;;;;2.50;2.30;;;36.00;41.10;;;;;;4806447;29;20317;-90
2022/05/16 10:01:35;;;;;;;3.28;2.97;;;36.00;42.00;;;;;;4790601;29;20223;-89
2022/05/16 10:08:05;;;;;;;4.22;2.95;;;35.60;41.10;;;;;;4816978;29;20209;-90
2022/05/16 10:10:39;;;;;;;5.60;3.38;;;35.00;42.00;;;;;;4929505;29;20209;-90
2022/05/16 10:13:08;;;;;;;2.70;2.50;;;34.60;43.10;;;;;;4937448;29;20232;-90
2022/05/16 10:15:40;;;;;;;4.70;3.50;;;34.70;43.20;;;;;;4947685;28;20276;-91
2022/05/16 10:21:16;;;;;;;3.50;2.65;;;35.20;43.20;;;;;;4996061;28;20210;-91
2022/05/16 10:24:23;;;;;;;3.00;2.70;;;35.70;43.00;;;;;;4996034;28;20265;-90
2022/05/16 10:33:50;;;;;;;3.72;2.85;;;36.10;42.10;;;;;;4931032;29;20272;-89
2022/05/16 10:51:42;;;;;;;4.88;2.65;;;35.40;41.60;;;;;;4860018;29;20276;-89
2022/05/16 10:54:14;;;;;;;3.88;2.70;;;35.20;43.30;;;;;;4879389;29;20233;-90
2022/05/16 10:57:04;;;;;;;4.18;3.13;;;35.70;42.80;;;;;;4948891;28;20226;-90
2022/05/16 11:00:15;;;;;;;4.25;2.65;;;35.90;42.40;;;;;;4986433;28;20256;-90
2022/05/16 11:07:26;;;;;;;4.57;3.88;;;36.90;42.20;;;;;;4954135;29;20216;-90
2022/05/16 11:18:26;;;;;;;4.72;3.10;;;37.20;41.90;;;;;;4877912;29;20327;-89
2022/05/16 11:27:58;;;;;;;3.90;3.08;;;36.90;41.30;;;;;;5013324;28;20210;-90
2022/05/16 11:31:12;;;;;;;4.72;2.92;;;36.60;42.40;;;;;;5013827;28;20206;-89
2022/05/16 11:33:48;;;;;;;4.38;2.70;;;37.00;41.40;;;;;;5013882;28;20238;-90
2022/05/16 11:36:24;;;;;;;3.22;2.92;;;37.10;41.30;;;;;;5013747;28;20266;-90
2022/05/16 11:39:08;;;;;;;4.03;2.78;;;37.00;41.50;;;;;;5013567;28;20222;-89
2022/05/16 11:42:08;;;;;;;3.72;2.90;;;37.00;41.20;;;;;;5013362;28;20203;-89
2022/05/16 11:45:20;;;;;;;3.75;3.10;;;36.80;41.00;;;;;;5006015;28;20266;-90
2022/05/16 11:48:24;;;;;;;3.05;2.80;;;36.10;41.10;;;;;;5013620;28;20204;-90
2022/05/16 12:07:18;;;;;;;5.53;3.13;;;33.90;45.90;;;;;;4861185;29;20214;-90
2022/05/16 12:10:50;;;;;;;5.32;3.25;;;34.90;43.20;;;;;;4877182;29;20203;-90
2022/05/16 12:28:29;;;;;;;2.67;2.40;;;35.00;42.40;;;;;;5089539;27;20611;-91
2022/05/16 12:31:14;;;;;;;3.40;2.67;;;34.60;43.40;;;;;;5089150;28;20212;-90
2022/05/16 12:33:52;;;;;;;6.28;3.60;;;35.10;43.90;;;;;;5089712;28;20251;-90
2022/05/16 12:36:23;;;;;;;4.07;3.50;;;35.20;41.60;;;;;;5089921;28;20200;-90
2022/05/16 12:38:57;;;;;;;4.82;3.13;;;35.40;43.00;;;;;;5090050;28;20231;-90
2022/05/16 12:41:51;;;;;;;4.40;2.90;;;35.30;44.10;;;;;;5089190;28;20202;-90
2022/05/16 12:44:44;;;;;;;4.18;2.88;;;35.00;42.00;;;;;;5089236;28;20292;-90
2022/05/16 12:47:53;;;;;;;16.02;2.97;;;35.30;43.50;;;;;;5089242;28;20266;-90
2022/05/16 12:50:51;;;;;;;2.90;2.70;;;35.50;44.40;;;;;;5089225;28;20238;-89
2022/05/16 12:53:49;;;;;;;3.47;2.85;;;35.50;43.50;;;;;;5089605;28;20227;-90
2022/05/16 12:56:24;;;;;;;3.90;3.50;;;35.60;42.00;;;;;;5089009;28;20242;-90
2022/05/16 12:59:07;;;;;;;9.82;3.13;;;35.40;41.60;;;;;;5089093;28;20200;-90
2022/05/16 13:01:42;;;;;;;3.53;2.35;;;35.10;42.40;;;;;;5089273;28;20223;-89
2022/05/16 13:04:35;;;;;;;5.25;2.80;;;34.70;42.80;;;;;;5089638;28;20239;-90
2022/05/16 13:07:11;;;;;;;3.53;3.00;;;34.80;43.40;;;;;;5089276;28;20223;-90
2022/05/16 13:09:48;;;;;;;2.80;2.60;;;34.00;44.10;;;;;;5089286;28;20204;-90
2022/05/16 13:12:42;;;;;;;3.70;2.85;;;34.10;44.30;;;;;;5089021;28;20286;-90
2022/05/16 13:15:15;;;;;;;4.70;2.95;;;34.30;45.20;;;;;;5088715;28;20233;-89
2022/05/16 13:17:50;;;;;;;3.13;2.78;;;34.00;43.30;;;;;;5088980;28;20200;-90
2022/05/16 13:20:22;;;;;;;3.05;2.78;;;34.00;45.20;;;;;;5088802;28;20207;-90
2022/05/16 13:22:52;;;;;;;3.95;3.30;;;34.10;45.20;;;;;;5088868;28;20242;-90
2022/05/16 13:25:22;;;;;;;5.32;2.90;;;33.90;46.20;;;;;;5089035;28;20216;-90
2022/05/16 13:30:44;;;;;;;3.97;3.63;;;33.50;45.80;;;;;;5088715;28;20229;-90
2022/05/16 13:33:25;;;;;;;3.83;3.53;;;33.50;45.70;;;;;;5088732;28;20230;-90
2022/05/16 13:39:11;;;;;;;3.55;3.25;;;34.00;46.10;;;;;;5073740;28;20201;-90
2022/05/16 13:41:40;;;;;;;3.47;3.17;;;34.00;45.50;;;;;;5074822;28;20215;-91
2022/05/16 13:44:12;;;;;;;5.82;3.17;;;33.90;44.50;;;;;;5074752;28;20221;-90
2022/05/16 13:46:41;;;;;;;3.30;2.83;;;33.80;45.00;;;;;;5074759;28;20319;-90
2022/05/16 13:49:15;;;;;;;5.07;2.72;;;33.70;45.70;;;;;;5074998;28;20236;-90
2022/05/16 13:51:49;;;;;;;3.75;3.20;;;33.60;45.50;;;;;;5074767;28;20200;-90
2022/05/16 13:54:27;;;;;;;4.38;3.65;;;33.10;45.10;;;;;;5074553;28;20216;-90
2022/05/16 13:56:58;;;;;;;7.28;2.83;;;32.90;45.80;;;;;;5074813;28;20246;-90
2022/05/16 13:59:28;;;;;;;4.60;3.08;;;33.00;46.00;;;;;;5074686;28;20270;-90
2022/05/16 14:02:03;;;;;;;4.07;3.05;;;33.00;46.30;;;;;;5074446;28;20236;-90
2022/05/16 14:04:39;;;;;;;3.40;2.95;;;33.00;45.90;;;;;;5074237;28;20204;-91
2022/05/16 14:07:14;;;;;;;4.18;3.60;;;32.70;45.30;;;;;;5074597;28;20230;-90
2022/05/16 14:09:53;;;;;;;4.28;2.78;;;32.60;46.30;;;;;;5074996;28;20286;-90
2022/05/16 14:13:09;;;;;;;3.97;2.92;;;32.40;46.10;;;;;;5074442;28;20288;-91
2022/05/16 14:15:53;;;;;;;3.40;3.10;;;32.20;47.20;;;;;;5074596;28;20346;-90
2022/05/16 14:22:18;;;;;;;4.95;3.00;;;32.20;47.40;;;;;;5076136;28;20197;-90
2022/05/16 14:24:50;;;;;;;3.08;2.75;;;31.80;48.40;;;;;;5076838;28;20205;-90
2022/05/16 14:27:24;;;;;;;3.28;2.97;;;31.80;47.70;;;;;;5075112;28;20249;-90
2022/05/16 14:30:01;;;;;;;3.55;3.25;;;31.70;47.40;;;;;;5074720;28;20263;-90
2022/05/16 14:33:03;;;;;;;6.38;3.42;;;31.20;46.90;;;;;;5076142;28;20233;-90
2022/05/16 14:35:32;;;;;;;3.40;2.95;;;31.20;48.60;;;;;;5073495;28;20235;-91
2022/05/16 14:42:01;;;;;;;4.28;3.53;;;31.30;47.80;;;;;;5062558;28;20213;-91
2022/05/16 14:47:49;;;;;;;3.03;2.72;;;30.90;47.20;;;;;;5067664;28;20289;-91
2022/05/16 14:51:22;;;;;;;3.20;2.90;;;30.80;48.90;;;;;;5072540;28;20216;-90
2022/05/16 14:53:51;;;;;;;6.65;3.15;;;30.70;48.60;;;;;;5055905;28;20279;-90
2022/05/16 14:56:36;;;;;;;3.60;3.03;;;30.60;49.20;;;;;;5073592;28;20226;-90
2022/05/16 14:59:17;;;;;;;5.57;3.28;;;30.60;49.20;;;;;;5073477;28;20235;-90
2022/05/16 15:09:00;;;;;;;6.55;3.05;;;30.10;49.60;;;;;;5059399;28;20303;-90
2022/05/16 15:11:51;;;;;;;3.67;3.20;;;29.90;49.80;;;;;;5072995;28;20255;-90
2022/05/16 15:14:21;;;;;;;3.90;3.00;;;29.60;49.90;;;;;;5073356;28;20225;-91
2022/05/16 15:16:50;;;;;;;3.25;2.95;;;29.50;49.90;;;;;;5073236;28;20256;-90
2022/05/16 15:19:19;;;;;;;3.03;2.72;;;29.30;50.60;;;;;;5073208;28;20208;-91
2022/05/16 15:21:49;;;;;;;4.35;3.20;;;29.20;50.60;;;;;;5073047;28;20209;-91
2022/05/16 15:24:23;;;;;;;3.20;2.72;;;29.10;50.70;;;;;;5073002;28;20241;-91
2022/05/16 15:27:13;;;;;;;4.78;3.20;;;29.00;50.70;;;;;;5072888;28;20233;-90
2022/05/16 15:29:41;;;;;;;4.03;3.65;;;28.90;51.10;;;;;;5072811;28;20209;-91
2022/05/16 15:32:12;;;;;;;3.08;2.80;;;28.90;51.40;;;;;;5072860;28;20202;-91
2022/05/16 15:34:42;;;;;;;3.50;3.17;;;28.80;51.20;;;;;;5072892;28;20220;-91
2022/05/16 15:37:12;;;;;;;4.40;3.58;;;28.70;51.20;;;;;;5073208;28;20276;-91
2022/05/16 15:39:41;;;;;;;4.43;3.13;;;28.60;51.00;;;;;;5072881;28;20239;-90
2022/05/16 15:42:12;;;;;;;3.10;2.80;;;28.60;51.40;;;;;;5072507;28;20205;-90
2022/05/16 15:44:41;;;;;;;3.88;3.10;;;28.60;51.30;;;;;;5072625;28;20237;-90
2022/05/16 15:47:15;;;;;;;3.35;3.05;;;28.50;51.60;;;;;;5072549;28;20228;-90
2022/05/16 15:49:46;;;;;;;3.67;2.88;;;28.60;51.70;;;;;;5073066;28;20228;-90
2022/05/16 15:52:16;;;;;;;4.45;3.17;;;28.60;51.50;;;;;;5072604;28;20213;-90
2022/05/16 15:54:45;;;;;;;7.35;3.55;;;28.60;52.00;;;;;;5072319;28;20216;-91
2022/05/16 15:57:15;;;;;;;3.92;3.35;;;28.60;51.90;;;;;;5072287;28;20201;-91
2022/05/16 15:59:44;;;;;;;3.55;3.10;;;28.50;51.90;;;;;;5072369;28;20236;-91
2022/05/16 16:09:18;;;;;;;6.72;3.55;;;28.30;52.70;;;;;;5072166;28;20224;-91
2022/05/16 16:11:47;;;;;;;4.85;3.55;;;28.30;52.40;;;;;;5072748;28;20232;-90
2022/05/16 16:14:20;;;;;;;2.83;2.53;;;28.30;53.00;;;;;;5072372;28;20244;-90
2022/05/16 16:16:51;;;;;;;3.42;3.13;;;28.30;52.90;;;;;;5072515;28;20223;-90
2022/05/16 16:19:29;;;;;;;4.53;3.17;;;28.30;53.00;;;;;;5073026;28;20266;-90
2022/05/16 16:21:58;;;;;;;3.63;3.33;;;28.30;53.20;;;;;;5072126;28;20220;-90
2022/05/16 16:24:30;;;;;;;4.03;3.08;;;28.30;53.00;;;;;;5072321;28;20249;-90
2022/05/16 16:27:44;;;;;;;4.25;3.35;;;28.20;52.70;;;;;;5072218;28;20212;-91
2022/05/16 16:31:18;;;;;;;3.53;3.22;;;28.10;52.80;;;;;;5043439;28;20263;-91
2022/05/16 16:34:17;;;;;;;4.40;3.55;;;28.00;52.80;;;;;;5072105;28;20233;-90
2022/05/16 16:43:40;;;;;;;5.05;3.70;;;27.80;54.10;;;;;;5040938;28;20256;-91
2022/05/16 16:46:11;;;;;;;3.88;3.05;;;27.80;54.30;;;;;;5071958;28;20311;-91
2022/05/16 16:48:41;;;;;;;3.97;3.58;;;27.70;54.50;;;;;;5071888;28;20216;-91
2022/05/16 16:57:31;;;;;;;3.67;3.05;;;27.40;54.80;;;;;;5071993;28;20255;-91
2022/05/16 17:00:01;;;;;;;3.88;3.15;;;27.30;55.00;;;;;;5072159;28;20291;-90
2022/05/16 17:02:33;;;;;;;3.97;3.55;;;27.20;55.30;;;;;;5071644;28;20228;-91
2022/05/16 17:05:04;;;;;;;4.07;3.33;;;27.20;55.80;;;;;;5071929;28;20205;-91
2022/05/16 17:07:35;;;;;;;7.07;2.95;;;27.10;55.90;;;;;;5071815;28;20213;-91
2022/05/16 17:10:08;;;;;;;7.25;3.75;;;27.00;56.30;;;;;;5072107;28;20201;-90
2022/05/16 17:12:37;;;;;;;4.82;3.13;;;26.90;56.70;;;;;;5072502;28;20241;-91
2022/05/16 17:15:07;;;;;;;3.30;3.00;;;26.80;56.40;;;;;;5075201;28;20221;-90
2022/05/16 17:17:36;;;;;;;3.80;3.40;;;26.70;56.50;;;;;;5075987;28;20200;-92
2022/05/16 17:20:05;;;;;;;5.63;3.80;;;26.70;57.10;;;;;;5075701;28;20201;-90
2022/05/16 17:22:35;;;;;;;5.18;3.58;;;26.60;57.00;;;;;;5075464;28;20308;-91